Santa Fe, NM

5:08 PM MDT on August 27, 2014 (GMT -0600)
Casa Solana | Change Station
CLOSE
Current Station
Personal Weather Station
Location: Santa Fe, NM
Elevation: 6930 ft
Nearby Weather Stations

Elev 6930 ft 35.69 °N, 105.96 °W | Updated 3 minutes ago

Mostly Cloudy
Mostly Cloudy
70.1 °F
Feels Like 77 °F
N
6.0
Wind Variable Wind from SSW
Gusts 6.0 mph

Today
High -- | Low -- °F
--% Chance of Precip.
Yesterday
High -- | Low -- °F
Precip. -- in
6:32 AM 7:37 PM
Waxing Crescent, 5% visible
Pressure 30.00 in
Visibility 10.0 miles
Clouds Overcast 10000 ft
Heat Index 77 °F
Dew Point 47 °F
Humidity 44%
Rainfall 0.35 in
Snow Depth 1 in
UV 1 out of 12
Pollen 4.40 out of 12
Air Quality Not available.
Flu Activity Not available.
METAR KSAF 272253Z 23011KT 10SM OVC100 22/08 A3026 RMK AO2 SLP157 T02170078

More Conditions Fewer Conditions

Pressure 30.00 in
Visibility 10.0 miles
Clouds Overcast 10000 ft
Heat Index 77 °F
Dew Point 47 °F
Humidity 44%
Rainfall 0.35 in
Snow Depth 1 in
UV 1 out of 12
Pollen 4.40 out of 12
Air Quality Not available.
Flu Activity Not available.
METAR KSAF 272253Z 23011KT 10SM OVC100 22/08 A3026 RMK AO2 SLP157 T02170078

More Conditions Fewer Conditions

Nowcast | as of 3:55 PM MDT on August 27, 2014

Through 6 PM...isolated showers and thunderstorms will continue over western and central New Mexico. The strongest storms will be capable of producing between one quarter and one half inch of rainfall...with locally higher amounts possible. Wind gusts will be up to 50 mph... hail one half inch in diameter and dangerous cloud to ground lightning. Locations potentially impacted through 6 PM include Shiprock...Kirtland...Farmington...Santa Fe...terrero...Cowles... Tres Ritos...Veguita...dusty...Aragon and Reserve.

×

10-Day Weather Forecast

Almanac

Astronomy

Aug. 27, 2014 Rise Set
Actual Time 6:32 AM MDT 7:37 PM MDT
Civil Twilight 6:05 AM MDT 8:04 PM MDT
Nautical Twilight 5:34 AM MDT 8:35 PM MDT
Astronomical Twilight 5:01 AM MDT 9:07 PM MDT
Moon 8:25 AM MDT 8:37 PM MDT
Length of Visible Light 13h 58m
Length of Day
13h 05m
Tomorrow will be 2m 7s shorter.
Waxing Crescent, 5% of the Moon is Illuminated
Today
Waxing Crescent
Sep 2
First Quarter
Sep 8
Full
Sep 15
Last Quarter
Sep 24
New

Today's Extremes

State Highs State Lows

Community

WunderPhotos

Upload Photos

1,747,814 photos uploaded!

Nearby

Snow Depth

Station Depth Elevation
Santa Fe 1 in 11445 ft
Wesner Springs 1 in 11120 ft
Quemazon 0 in 9500 ft
Hopewell 0 in 10000 ft
Red River Pass #2 0 in 9850 ft

Earthquake Activity

City Distance Mag. Time & Date
No recent earthquake activity has been reported nearby.
Minimum magnitude displayed is 2.5.

Coastal Water Temperatures

Place Temperature
No Stations Reporting

Nearby Weather Stations